sensor_id;sensor_type;location;lat;lon;timestamp;pressure;altitude;pressure_sealevel;temperature;humidity
55664;BME280;41540;57.880;12.164;2022-09-09T00:11:43;100594.81;;;8.05;nan
55664;BME280;41540;57.880;12.164;2022-09-09T00:22:00;100531.19;;;7.73;nan
55664;BME280;41540;57.880;12.164;2022-09-09T00:32:21;100719.84;;;8.73;nan
55664;BME280;41540;57.880;12.164;2022-09-09T00:52:47;100798.13;;;9.34;nan
55664;BME280;41540;57.880;12.164;2022-09-09T01:13:29;100536.28;;;7.72;nan
55664;BME280;41540;57.880;12.164;2022-09-09T01:34:12;100604.31;;;8.06;nan
55664;BME280;41540;57.880;12.164;2022-09-09T01:44:13;100389.19;;;7.05;nan
55664;BME280;41540;57.880;12.164;2022-09-09T01:54:14;100552.16;;;7.86;nan
55664;BME280;41540;57.880;12.164;2022-09-09T02:04:41;100675.75;;;9.01;nan
55664;BME280;41540;57.880;12.164;2022-09-09T02:14:47;100475.03;;;8.28;nan
55664;BME280;41540;57.880;12.164;2022-09-09T02:24:50;100487.91;;;8.62;nan
55664;BME280;41540;57.880;12.164;2022-09-09T02:34:58;100360.88;;;8.04;nan
55664;BME280;41540;57.880;12.164;2022-09-09T02:45:00;100411.81;;;8.46;nan
55664;BME280;41540;57.880;12.164;2022-09-09T02:55:07;100226.41;;;7.20;nan
55664;BME280;41540;57.880;12.164;2022-09-09T03:05:11;100452.03;;;8.72;nan
55664;BME280;41540;57.880;12.164;2022-09-09T03:15:13;100478.97;;;8.84;nan
55664;BME280;41540;57.880;12.164;2022-09-09T03:25:14;100474.59;;;8.80;nan
55664;BME280;41540;57.880;12.164;2022-09-09T03:35:15;100438.44;;;8.45;nan
55664;BME280;41540;57.880;12.164;2022-09-09T03:45:15;100510.16;;;8.91;nan
55664;BME280;41540;57.880;12.164;2022-09-09T03:55:16;100498.69;;;8.80;nan
55664;BME280;41540;57.880;12.164;2022-09-09T04:05:16;100613.34;;;9.20;nan
55664;BME280;41540;57.880;12.164;2022-09-09T04:15:17;100592.38;;;9.08;nan
55664;BME280;41540;57.880;12.164;2022-09-09T04:25:18;100564.47;;;8.93;nan
55664;BME280;41540;57.880;12.164;2022-09-09T04:35:18;100537.03;;;8.98;nan
55664;BME280;41540;57.880;12.164;2022-09-09T04:45:20;100548.97;;;9.70;nan
55664;BME280;41540;57.880;12.164;2022-09-09T04:55:20;100576.50;;;10.09;nan
55664;BME280;41540;57.880;12.164;2022-09-09T05:05:20;100594.28;;;9.92;nan
55664;BME280;41540;57.880;12.164;2022-09-09T05:15:21;100571.81;;;11.39;nan
55664;BME280;41540;57.880;12.164;2022-09-09T05:25:22;100539.81;;;10.30;nan
55664;BME280;41540;57.880;12.164;2022-09-09T05:35:24;100550.88;;;10.23;nan
55664;BME280;41540;57.880;12.164;2022-09-09T05:45:24;100390.03;;;9.56;nan
55664;BME280;41540;57.880;12.164;2022-09-09T05:55:25;100432.28;;;10.02;nan
55664;BME280;41540;57.880;12.164;2022-09-09T06:05:25;100589.78;;;10.72;nan
55664;BME280;41540;57.880;12.164;2022-09-09T06:15:27;100530.69;;;10.52;nan
55664;BME280;41540;57.880;12.164;2022-09-09T06:25:30;100592.00;;;11.04;nan
55664;BME280;41540;57.880;12.164;2022-09-09T06:35:31;100556.53;;;11.00;nan
55664;BME280;41540;57.880;12.164;2022-09-09T06:45:31;100576.84;;;11.30;nan
55664;BME280;41540;57.880;12.164;2022-09-09T06:55:31;100444.50;;;10.61;nan
55664;BME280;41540;57.880;12.164;2022-09-09T07:05:32;100532.38;;;11.04;nan
55664;BME280;41540;57.880;12.164;2022-09-09T07:15:32;100582.94;;;11.30;nan
55664;BME280;41540;57.880;12.164;2022-09-09T07:25:33;100601.66;;;11.70;nan
55664;BME280;41540;57.880;12.164;2022-09-09T07:35:34;100386.78;;;10.70;nan
55664;BME280;41540;57.880;12.164;2022-09-09T07:45:35;100563.44;;;12.27;nan
55664;BME280;41540;57.880;12.164;2022-09-09T07:55:35;100568.00;;;12.52;nan
55664;BME280;41540;57.880;12.164;2022-09-09T08:05:36;100334.97;;;11.45;nan
55664;BME280;41540;57.880;12.164;2022-09-09T08:15:36;100488.16;;;12.34;nan
55664;BME280;41540;57.880;12.164;2022-09-09T08:25:36;100398.72;;;12.05;nan
55664;BME280;41540;57.880;12.164;2022-09-09T08:35:37;100584.81;;;12.91;nan
55664;BME280;41540;57.880;12.164;2022-09-09T08:46:11;100564.84;;;12.86;nan
55664;BME280;41540;57.880;12.164;2022-09-09T08:56:16;100503.13;;;12.61;nan
55664;BME280;41540;57.880;12.164;2022-09-09T09:17:21;100367.75;;;12.27;nan
55664;BME280;41540;57.880;12.164;2022-09-09T09:27:21;100450.63;;;13.17;nan
55664;BME280;41540;57.880;12.164;2022-09-09T09:37:31;100454.28;;;13.44;nan
55664;BME280;41540;57.880;12.164;2022-09-09T09:47:32;100356.09;;;13.11;nan
55664;BME280;41540;57.880;12.164;2022-09-09T09:57:33;100467.41;;;13.84;nan
55664;BME280;41540;57.880;12.164;2022-09-09T10:07:34;100418.66;;;13.35;nan
55664;BME280;41540;57.880;12.164;2022-09-09T10:38:30;100425.50;;;13.22;nan
55664;BME280;41540;57.880;12.164;2022-09-09T10:58:58;100637.25;;;13.38;nan
55664;BME280;41540;57.880;12.164;2022-09-09T11:09:02;100606.44;;;12.86;nan
55664;BME280;41540;57.880;12.164;2022-09-09T11:29:40;100385.34;;;12.70;nan
55664;BME280;41540;57.880;12.164;2022-09-09T11:50:38;100255.38;;;12.57;nan
55664;BME280;41540;57.880;12.164;2022-09-09T12:00:45;100130.56;;;12.37;nan
55664;BME280;41540;57.880;12.164;2022-09-09T12:10:55;100048.28;;;12.16;nan
55664;BME280;41540;57.880;12.164;2022-09-09T12:31:20;99988.50;;;11.98;nan
55664;BME280;41540;57.880;12.164;2022-09-09T12:41:25;100020.53;;;12.00;nan
55664;BME280;41540;57.880;12.164;2022-09-09T12:51:28;100102.81;;;12.22;nan
55664;BME280;41540;57.880;12.164;2022-09-09T13:01:32;99926.03;;;11.44;nan
55664;BME280;41540;57.880;12.164;2022-09-09T13:11:41;99856.13;;;11.99;nan
55664;BME280;41540;57.880;12.164;2022-09-09T13:21:43;98850.91;;;11.27;nan
55664;BME280;41540;57.880;12.164;2022-09-09T13:31:44;100001.47;;;11.98;nan
55664;BME280;41540;57.880;12.164;2022-09-09T13:41:46;99916.72;;;12.34;nan
55664;BME280;41540;57.880;12.164;2022-09-09T13:51:50;99784.25;;;11.38;nan
55664;BME280;41540;57.880;12.164;2022-09-09T14:01:52;99586.09;;;10.10;nan
55664;BME280;41540;57.880;12.164;2022-09-09T14:11:53;99586.09;;;10.10;nan
55664;BME280;41540;57.880;12.164;2022-09-09T14:21:55;59027.81;;;-145.61;100.00
55664;BME280;41540;57.880;12.164;2022-09-09T14:31:55;99940.06;;;12.23;nan
55664;BME280;41540;57.880;12.164;2022-09-09T14:41:55;99885.44;;;11.67;nan
55664;BME280;41540;57.880;12.164;2022-09-09T14:51:56;59027.81;;;-145.61;100.00
55664;BME280;41540;57.880;12.164;2022-09-09T15:01:57;59027.81;;;-145.61;100.00
55664;BME280;41540;57.880;12.164;2022-09-09T15:11:57;59027.81;;;-145.61;100.00
55664;BME280;41540;57.880;12.164;2022-09-09T15:21:57;59027.81;;;-145.61;100.00
55664;BME280;41540;57.880;12.164;2022-09-09T15:31:59;59027.81;;;-145.61;100.00
55664;BME280;41540;57.880;12.164;2022-09-09T15:41:59;59027.81;;;-145.61;100.00
55664;BME280;41540;57.880;12.164;2022-09-09T15:52:00;59027.81;;;-145.61;100.00
55664;BME280;41540;57.880;12.164;2022-09-09T16:02:04;99899.38;;;11.96;nan
55664;BME280;41540;57.880;12.164;2022-09-09T16:12:05;99955.66;;;12.23;nan
55664;BME280;41540;57.880;12.164;2022-09-09T16:22:11;99903.69;;;11.90;nan
55664;BME280;41540;57.880;12.164;2022-09-09T16:32:12;99946.97;;;11.96;nan
55664;BME280;41540;57.880;12.164;2022-09-09T16:42:12;99837.84;;;11.47;nan
55664;BME280;41540;57.880;12.164;2022-09-09T16:52:13;99961.69;;;12.17;nan
55664;BME280;41540;57.880;12.164;2022-09-09T17:02:13;99970.38;;;12.25;nan
55664;BME280;41540;57.880;12.164;2022-09-09T17:12:13;99888.06;;;11.81;nan
55664;BME280;41540;57.880;12.164;2022-09-09T17:22:14;99836.09;;;11.37;nan
55664;BME280;41540;57.880;12.164;2022-09-09T17:32:15;99965.19;;;12.28;nan
55664;BME280;41540;57.880;12.164;2022-09-09T17:42:15;99904.56;;;11.96;nan
55664;BME280;41540;57.880;12.164;2022-09-09T17:52:19;99946.16;;;12.16;nan
55664;BME280;41540;57.880;12.164;2022-09-09T18:02:21;99944.38;;;12.05;nan
55664;BME280;41540;57.880;12.164;2022-09-09T18:12:21;100004.16;;;12.55;nan
55664;BME280;41540;57.880;12.164;2022-09-09T18:22:22;99971.25;;;12.34;nan
55664;BME280;41540;57.880;12.164;2022-09-09T18:32:22;99897.59;;;11.84;nan
55664;BME280;41540;57.880;12.164;2022-09-09T18:42:23;99966.06;;;12.20;nan
55664;BME280;41540;57.880;12.164;2022-09-09T18:52:28;99954.81;;;12.18;nan
55664;BME280;41540;57.880;12.164;2022-09-09T19:02:28;100018.03;;;12.54;nan
55664;BME280;41540;57.880;12.164;2022-09-09T19:12:29;100073.47;;;12.68;nan
55664;BME280;41540;57.880;12.164;2022-09-09T19:22:30;100036.22;;;12.60;nan
55664;BME280;41540;57.880;12.164;2022-09-09T19:32:30;99956.53;;;12.08;nan
55664;BME280;41540;57.880;12.164;2022-09-09T19:42:30;100063.09;;;12.63;nan
55664;BME280;41540;57.880;12.164;2022-09-09T19:52:31;99966.91;;;12.06;nan
55664;BME280;41540;57.880;12.164;2022-09-09T20:02:31;99972.94;;;12.07;nan
55664;BME280;41540;57.880;12.164;2022-09-09T20:12:32;99933.03;;;11.79;nan
55664;BME280;41540;57.880;12.164;2022-09-09T20:22:35;100022.34;;;12.33;nan
55664;BME280;41540;57.880;12.164;2022-09-09T20:32:36;100000.69;;;12.16;nan
55664;BME280;41540;57.880;12.164;2022-09-09T20:42:36;100044.84;;;12.43;nan
55664;BME280;41540;57.880;12.164;2022-09-09T20:52:37;100028.41;;;12.27;nan
55664;BME280;41540;57.880;12.164;2022-09-09T21:02:37;99990.28;;;12.16;nan
55664;BME280;41540;57.880;12.164;2022-09-09T21:12:38;100075.19;;;12.58;nan
55664;BME280;41540;57.880;12.164;2022-09-09T21:22:38;99964.28;;;11.97;nan
55664;BME280;41540;57.880;12.164;2022-09-09T21:32:39;100031.00;;;12.40;nan
55664;BME280;41540;57.880;12.164;2022-09-09T21:42:40;99964.25;;;11.94;nan
55664;BME280;41540;57.880;12.164;2022-09-09T21:52:40;100057.88;;;12.46;nan
55664;BME280;41540;57.880;12.164;2022-09-09T22:02:40;100016.25;;;12.20;nan
55664;BME280;41540;57.880;12.164;2022-09-09T22:12:41;99967.75;;;11.99;nan
55664;BME280;41540;57.880;12.164;2022-09-09T22:22:41;100015.38;;;12.15;nan
55664;BME280;41540;57.880;12.164;2022-09-09T22:32:42;100088.19;;;12.51;nan
55664;BME280;41540;57.880;12.164;2022-09-09T22:42:42;100097.69;;;12.39;nan
55664;BME280;41540;57.880;12.164;2022-09-09T22:52:43;100057.81;;;12.26;nan
55664;BME280;41540;57.880;12.164;2022-09-09T23:02:43;100081.25;;;12.40;nan
55664;BME280;41540;57.880;12.164;2022-09-09T23:12:43;99977.19;;;11.83;nan
55664;BME280;41540;57.880;12.164;2022-09-09T23:22:44;100080.34;;;12.35;nan
55664;BME280;41540;57.880;12.164;2022-09-09T23:32:47;100095.13;;;12.52;nan
55664;BME280;41540;57.880;12.164;2022-09-09T23:42:48;100066.50;;;12.41;nan
55664;BME280;41540;57.880;12.164;2022-09-09T23:52:49;100045.75;;;12.36;nan
